createdAt,value
2019-04-11T00:00:58.182Z,88.0981
2019-04-11T00:02:01.221Z,88.0981
2019-04-11T00:03:05.057Z,88.0981
2019-04-11T00:04:08.286Z,88.0981
2019-04-11T00:05:11.172Z,88.0981
2019-04-11T00:06:15.246Z,88.0981
2019-04-11T00:07:18.272Z,88.0981
2019-04-11T00:08:21.730Z,88.0981
2019-04-11T00:09:24.887Z,88.0981
2019-04-11T00:10:29.188Z,87.9944
2019-04-11T00:11:32.196Z,87.9944
2019-04-11T00:12:35.191Z,87.9944
2019-04-11T00:13:39.121Z,87.9944
2019-04-11T00:14:42.214Z,87.8967
2019-04-11T00:15:45.187Z,87.9333
2019-04-11T00:16:48.184Z,87.8967
2019-04-11T00:17:52.311Z,88.0371
2019-04-11T00:18:54.743Z,88.1409
2019-04-11T00:19:56.192Z,88.1409
2019-04-11T00:21:00.231Z,88.1409
2019-04-11T00:22:03.506Z,88.1409
2019-04-11T00:23:08.048Z,88.1409
2019-04-11T00:24:12.458Z,88.1409
2019-04-11T00:25:15.670Z,88.0371
2019-04-11T00:26:18.174Z,88.0371
2019-04-11T00:27:21.261Z,88.0371
2019-04-11T00:28:24.181Z,88.0371
2019-04-11T00:29:28.123Z,87.9333
2019-04-11T00:30:32.290Z,87.9333
2019-04-11T00:31:35.181Z,87.9333
2019-04-11T00:32:38.169Z,87.8296
2019-04-11T00:33:42.398Z,87.8296
2019-04-11T00:34:45.194Z,87.8296
2019-04-11T00:35:48.063Z,87.8296
2019-04-11T00:36:51.213Z,87.8296
2019-04-11T00:37:54.181Z,87.8296
2019-04-11T00:38:57.335Z,87.8296
2019-04-11T00:40:01.808Z,87.9333
2019-04-11T00:41:04.301Z,87.9333
2019-04-11T00:42:07.244Z,87.9333
2019-04-11T00:43:11.372Z,87.9333
2019-04-11T00:44:14.678Z,87.9761
2019-04-11T00:45:19.215Z,87.9761
2019-04-11T00:46:22.470Z,87.9761
2019-04-11T00:47:25.198Z,87.9761
2019-04-11T00:48:28.227Z,87.9761
2019-04-11T00:49:31.185Z,87.9761
2019-04-11T00:50:35.011Z,88.0798
2019-04-11T00:51:38.196Z,88.0798
2019-04-11T00:52:41.304Z,88.0798
2019-04-11T00:53:44.498Z,87.9761
2019-04-11T00:54:47.198Z,87.9761
2019-04-11T00:55:51.248Z,87.9761
2019-04-11T00:56:54.706Z,87.9761
2019-04-11T00:57:57.213Z,87.9761
2019-04-11T00:59:00.282Z,87.9761
2019-04-11T01:00:05.219Z,87.9761
2019-04-11T01:01:09.159Z,87.8723
2019-04-11T01:02:12.176Z,87.8723
2019-04-11T01:03:15.206Z,87.8723
2019-04-11T01:04:18.189Z,87.8723
2019-04-11T01:05:21.370Z,87.8723
2019-04-11T01:06:24.194Z,87.7686
2019-04-11T01:07:27.210Z,87.7686
2019-04-11T01:08:31.279Z,87.7686
2019-04-11T01:09:34.720Z,87.7686
2019-04-11T01:10:37.201Z,87.7686
2019-04-11T01:11:40.451Z,87.7686
2019-04-11T01:12:43.204Z,87.6648
2019-04-11T01:13:50.920Z,87.6648
2019-04-11T01:14:55.225Z,87.6648
2019-04-11T01:15:58.211Z,87.5610
2019-04-11T01:17:01.193Z,87.5610
2019-04-11T01:18:04.204Z,87.5610
2019-04-11T01:19:07.306Z,87.5610
2019-04-11T01:20:11.142Z,87.5610
2019-04-11T01:21:14.187Z,87.4573
2019-04-11T01:22:16.220Z,87.4573
2019-04-11T01:23:20.685Z,87.4573
2019-04-11T01:24:23.872Z,87.3535
2019-04-11T01:25:27.201Z,87.3535
2019-04-11T01:26:30.170Z,87.2559
2019-04-11T01:27:34.167Z,87.2559
2019-04-11T01:28:37.190Z,87.2559
2019-04-11T01:29:40.190Z,87.2559
2019-04-11T01:30:42.189Z,87.2559
2019-04-11T01:31:46.148Z,87.2925
2019-04-11T01:32:49.219Z,87.2925
2019-04-11T01:33:53.889Z,87.1887
2019-04-11T01:35:07.179Z,87.1521
2019-04-11T01:36:11.181Z,87.1887
2019-04-11T01:37:15.530Z,87.0850
2019-04-11T01:38:18.205Z,87.0850
2019-04-11T01:39:23.178Z,87.0483
2019-04-11T01:40:26.177Z,87.0483
2019-04-11T01:41:29.258Z,87.0483
2019-04-11T01:42:33.357Z,87.0850
2019-04-11T01:43:36.187Z,86.9812
2019-04-11T01:44:39.184Z,86.9446
2019-04-11T01:45:49.664Z,86.8408
2019-04-11T01:46:52.197Z,86.8408
2019-04-11T01:47:55.586Z,86.8408
2019-04-11T01:48:58.192Z,86.7371
2019-04-11T01:50:01.168Z,86.7371
2019-04-11T01:51:05.303Z,86.6333
2019-04-11T01:52:08.192Z,86.6333
2019-04-11T01:53:11.200Z,86.6333
2019-04-11T01:54:15.251Z,86.6333
2019-04-11T01:55:18.521Z,86.5295
2019-04-11T01:56:21.174Z,86.5295
2019-04-11T01:57:24.192Z,86.5295
2019-04-11T01:58:27.184Z,86.5295
2019-04-11T01:59:31.196Z,86.5295
2019-04-11T02:00:34.419Z,86.5295
2019-04-11T02:01:37.024Z,86.4258
2019-04-11T02:02:40.188Z,86.4258
2019-04-11T02:03:44.237Z,86.4258
2019-04-11T02:04:48.053Z,86.4258
2019-04-11T02:05:51.588Z,86.3220
2019-04-11T02:06:54.184Z,86.3220
2019-04-11T02:07:58.732Z,86.2244
2019-04-11T02:09:01.931Z,86.2244
2019-04-11T02:10:05.420Z,86.1206
2019-04-11T02:11:09.759Z,86.1206
2019-04-11T02:12:12.185Z,86.1206
2019-04-11T02:13:15.413Z,86.1206
2019-04-11T02:14:19.959Z,86.1206
2019-04-11T02:15:25.205Z,86.1206
2019-04-11T02:16:29.283Z,86.1206
2019-04-11T02:17:32.858Z,86.1572
2019-04-11T02:18:37.299Z,86.1572
2019-04-11T02:19:41.228Z,86.1572
2019-04-11T02:20:45.189Z,86.1572
2019-04-11T02:21:49.644Z,86.1572
2019-04-11T02:22:52.847Z,86.1572
2019-04-11T02:23:56.337Z,86.1572
2019-04-11T02:25:00.505Z,86.1572
2019-04-11T02:26:03.172Z,86.2000
2019-04-11T02:27:06.506Z,86.2000
2019-04-11T02:28:09.164Z,86.3037
2019-04-11T02:29:13.251Z,86.3037
2019-04-11T02:30:20.020Z,86.4075
2019-04-11T02:31:26.161Z,86.4075
2019-04-11T02:32:29.407Z,86.3037
2019-04-11T02:33:32.959Z,86.3037
2019-04-11T02:34:37.085Z,86.3037
2019-04-11T02:35:42.334Z,86.2000
2019-04-11T02:36:48.918Z,86.0962
2019-04-11T02:37:52.219Z,86.0962
2019-04-11T02:38:59.004Z,85.9924
2019-04-11T02:40:03.709Z,85.9924
2019-04-11T02:41:10.574Z,85.8887
2019-04-11T02:42:16.920Z,85.8887
2019-04-11T02:43:20.518Z,85.7849
2019-04-11T02:44:45.501Z,85.7849
2019-04-11T02:45:45.208Z,85.6812
2019-04-11T02:46:48.238Z,85.6445
2019-04-11T02:47:51.062Z,85.5408
2019-04-11T02:48:56.702Z,85.4370
2019-04-11T02:50:01.195Z,85.4370
2019-04-11T02:51:06.927Z,85.3333
2019-04-11T02:52:13.371Z,85.3333
2019-04-11T02:53:18.373Z,85.2295
2019-04-11T02:54:44.646Z,85.2295
2019-04-11T02:55:51.865Z,85.1257
2019-04-11T02:56:55.178Z,85.0220
2019-04-11T02:57:59.757Z,85.0220
2019-04-11T02:59:05.450Z,85.0220
2019-04-11T03:00:11.090Z,85.0220
2019-04-11T03:01:17.893Z,85.0220
2019-04-11T03:02:21.504Z,85.0220
2019-04-11T03:03:25.384Z,85.0220
2019-04-11T03:04:28.946Z,85.0220
2019-04-11T03:05:34.521Z,85.0220
2019-04-11T03:06:37.206Z,85.0220
2019-04-11T03:07:42.336Z,85.0220
2019-04-11T03:08:46.487Z,84.9182
2019-04-11T03:09:53.372Z,84.9182
2019-04-11T03:10:57.638Z,84.9182
2019-04-11T03:12:00.782Z,84.8145
2019-04-11T03:13:04.587Z,84.7168
2019-04-11T03:14:09.635Z,84.6130
2019-04-11T03:15:27.179Z,84.6130
2019-04-11T03:16:32.858Z,84.6130
2019-04-11T03:17:36.779Z,84.5093
2019-04-11T03:18:54.806Z,84.5093
2019-04-11T03:20:04.507Z,84.5459
2019-04-11T03:21:02.775Z,84.6130
2019-04-11T03:22:05.647Z,84.6497
2019-04-11T03:23:10.799Z,84.6497
2019-04-11T03:24:17.671Z,84.6497
2019-04-11T03:25:22.521Z,84.5459
2019-04-11T03:26:25.186Z,84.5459
2019-04-11T03:27:30.256Z,84.5093
2019-04-11T03:28:35.591Z,84.4421
2019-04-11T03:29:40.670Z,84.4421
2019-04-11T03:31:07.172Z,84.4421
2019-04-11T03:32:33.501Z,84.4421
2019-04-11T03:37:53.591Z,84.2346
2019-04-11T03:39:00.315Z,84.2346
2019-04-11T03:40:09.697Z,84.2346
2019-04-11T03:41:12.786Z,84.2346
2019-04-11T03:42:17.223Z,84.2346
2019-04-11T03:43:24.092Z,84.2346
2019-04-11T03:44:25.443Z,84.3384
2019-04-11T03:45:49.698Z,84.2346
2019-04-11T03:46:49.255Z,84.2346
2019-04-11T03:48:00.912Z,84.2346
2019-04-11T03:49:01.268Z,84.2346
2019-04-11T03:50:06.055Z,84.3384
2019-04-11T03:51:20.514Z,84.3384
2019-04-11T03:52:25.664Z,84.3384
2019-04-11T03:53:29.908Z,84.3384
2019-04-11T03:54:36.267Z,84.3384
2019-04-11T03:55:39.189Z,84.3384
2019-04-11T03:56:43.354Z,84.2346
2019-04-11T03:57:46.966Z,84.2346
2019-04-11T03:58:50.396Z,84.2346
2019-04-11T03:59:54.545Z,84.2346
2019-04-11T04:01:03.244Z,84.2346
2019-04-11T04:02:07.639Z,84.2346
2019-04-11T04:03:12.099Z,84.1309
2019-04-11T04:04:19.320Z,84.0332
2019-04-11T04:05:26.182Z,83.9294
2019-04-11T04:06:28.832Z,83.9294
2019-04-11T04:07:31.983Z,83.9294
2019-04-11T04:08:36.362Z,83.9294
2019-04-11T04:09:43.801Z,83.9294
2019-04-11T04:10:47.718Z,83.9661
2019-04-11T04:11:51.173Z,84.0698
2019-04-11T04:12:55.684Z,84.0698
2019-04-11T04:13:59.891Z,84.0698
2019-04-11T04:15:06.493Z,84.1736
2019-04-11T04:16:21.652Z,84.2773
2019-04-11T04:17:21.375Z,84.2773
2019-04-11T04:18:25.175Z,84.3811
2019-04-11T04:19:30.409Z,84.3811
2019-04-11T04:20:35.287Z,84.3811
2019-04-11T04:21:38.846Z,84.4849
2019-04-11T04:22:44.057Z,84.4849
2019-04-11T04:23:49.621Z,84.5886
2019-04-11T04:24:53.999Z,84.6863
2019-04-11T04:26:01.221Z,84.6863
2019-04-11T04:27:07.167Z,84.7900
2019-04-11T04:28:13.661Z,84.8938
2019-04-11T04:29:17.943Z,84.8938
2019-04-11T04:30:21.908Z,84.8938
2019-04-11T04:31:26.548Z,84.8938
2019-04-11T04:32:30.410Z,84.9976
2019-04-11T04:33:36.334Z,84.9976
2019-04-11T04:34:42.093Z,84.9976
2019-04-11T04:35:45.190Z,84.9976
2019-04-11T04:36:49.710Z,84.9976
2019-04-11T04:37:52.202Z,84.9976
2019-04-11T04:38:56.930Z,84.9976
2019-04-11T04:40:21.152Z,84.9976
2019-04-11T04:41:22.472Z,85.1013
2019-04-11T04:42:26.405Z,85.1013
2019-04-11T04:43:27.536Z,85.1440
2019-04-11T04:44:33.408Z,85.2417
2019-04-11T04:45:55.146Z,85.1440
2019-04-11T04:46:58.085Z,85.1440
2019-04-11T04:47:56.588Z,85.1440
2019-04-11T04:49:00.186Z,85.0403
2019-04-11T04:50:06.177Z,85.0403
2019-04-11T04:51:11.414Z,85.0403
2019-04-11T04:52:16.457Z,84.9365
2019-04-11T04:53:20.421Z,84.9365
2019-04-11T04:54:25.184Z,84.9365
2019-04-11T04:55:30.292Z,84.9365
2019-04-11T04:56:34.942Z,84.9365
2019-04-11T04:57:40.495Z,84.9365
2019-04-11T04:58:44.455Z,84.9365
2019-04-11T04:59:48.795Z,84.9365
2019-04-11T05:00:54.265Z,84.9365
2019-04-11T05:01:59.396Z,84.9365
2019-04-11T05:03:02.521Z,84.8328
2019-04-11T05:04:06.752Z,84.8328
2019-04-11T05:05:09.571Z,84.8328
2019-04-11T05:06:14.324Z,84.8328
2019-04-11T05:07:19.266Z,84.8328
2019-04-11T05:08:22.862Z,84.8328
2019-04-11T05:09:26.203Z,84.8328
2019-04-11T05:10:30.666Z,84.7290
2019-04-11T05:11:33.955Z,84.7290
2019-04-11T05:12:38.626Z,84.7290
2019-04-11T05:13:45.307Z,84.7290
2019-04-11T05:14:51.799Z,84.7290
2019-04-11T05:16:06.857Z,84.7290
2019-04-11T05:17:04.332Z,84.7290
2019-04-11T05:18:06.324Z,84.7290
2019-04-11T05:19:09.180Z,84.6252
2019-04-11T05:20:14.057Z,84.6252
2019-04-11T05:21:17.192Z,84.6252
2019-04-11T05:22:20.196Z,84.5886
2019-04-11T05:23:23.534Z,84.4849
2019-04-11T05:24:26.432Z,84.4849
2019-04-11T05:25:30.825Z,84.4849
2019-04-11T05:26:33.388Z,84.3811
2019-04-11T05:27:36.193Z,84.3811
2019-04-11T05:28:39.397Z,84.3811
2019-04-11T05:29:42.194Z,84.2102
2019-04-11T05:30:44.984Z,84.3140
2019-04-11T05:31:49.223Z,84.3140
2019-04-11T05:32:52.199Z,84.3140
2019-04-11T05:33:56.072Z,84.2102
2019-04-11T05:34:59.205Z,84.2102
2019-04-11T05:36:02.187Z,84.1064
2019-04-11T05:37:05.206Z,84.0698
2019-04-11T05:38:08.415Z,83.9661
2019-04-11T05:39:11.206Z,83.9661
2019-04-11T05:40:14.849Z,83.9661
2019-04-11T05:41:17.355Z,83.8623
2019-04-11T05:42:22.754Z,83.8623
2019-04-11T05:43:31.884Z,83.8623
2019-04-11T05:44:38.181Z,83.7585
2019-04-11T05:45:43.189Z,83.7585
2019-04-11T05:46:52.408Z,83.6548
2019-04-11T05:47:56.355Z,83.6548
2019-04-11T05:49:00.740Z,83.5510
2019-04-11T05:50:13.542Z,83.5510
2019-04-11T05:51:21.338Z,83.4473
2019-04-11T05:52:27.387Z,83.4473
2019-04-11T05:53:35.323Z,83.3069
2019-04-11T05:54:41.812Z,83.2031
2019-04-11T05:55:47.560Z,83.2031
2019-04-11T05:56:54.735Z,83.0994
2019-04-11T05:57:58.639Z,83.0994
2019-04-11T05:59:01.917Z,83.0994
2019-04-11T06:00:05.541Z,83.0994
2019-04-11T06:01:10.040Z,83.0994
2019-04-11T06:02:15.103Z,82.9956
2019-04-11T06:03:18.197Z,82.8918
2019-04-11T06:04:24.087Z,82.8918
2019-04-11T06:05:32.459Z,82.7942
2019-04-11T06:06:40.178Z,82.7942
2019-04-11T06:07:46.994Z,82.7515
2019-04-11T06:08:50.168Z,82.6477
2019-04-11T06:09:53.190Z,82.4463
2019-04-11T06:10:56.687Z,82.3425
2019-04-11T06:11:59.209Z,82.2388
2019-04-11T06:13:02.501Z,82.3425
2019-04-11T06:14:05.889Z,82.4829
2019-04-11T06:15:11.548Z,82.4829
2019-04-11T06:16:14.618Z,82.4829
2019-04-11T06:17:18.364Z,82.4829
2019-04-11T06:18:27.859Z,82.5867
2019-04-11T06:19:30.348Z,82.5867
2019-04-11T06:20:33.449Z,82.5867
2019-04-11T06:21:36.193Z,82.5867
2019-04-11T06:22:40.254Z,82.6904
2019-04-11T06:23:43.468Z,82.6904
2019-04-11T06:24:46.207Z,82.6904
2019-04-11T06:25:49.283Z,82.4829
2019-04-11T06:26:52.190Z,82.3792
2019-04-11T06:27:55.812Z,82.2754
2019-04-11T06:28:59.101Z,82.1350
2019-04-11T06:30:09.663Z,82.1350
2019-04-11T06:31:33.862Z,82.0312
2019-04-11T06:32:37.366Z,82.0312
2019-04-11T06:33:41.222Z,81.9275
2019-04-11T06:34:44.191Z,81.9275
2019-04-11T06:35:48.267Z,81.9275
2019-04-11T06:36:51.214Z,81.9275
2019-04-11T06:37:54.313Z,81.9275
2019-04-11T06:38:57.198Z,81.9275
2019-04-11T06:40:00.853Z,81.9275
2019-04-11T06:41:06.179Z,81.9275
2019-04-11T06:42:09.203Z,81.8237
2019-04-11T06:43:12.208Z,81.7200
2019-04-11T06:44:16.365Z,81.7200
2019-04-11T06:45:19.709Z,81.7200
2019-04-11T06:46:22.168Z,81.8237
2019-04-11T06:47:25.182Z,81.8237
2019-04-11T06:48:28.215Z,81.8237
2019-04-11T06:49:31.184Z,81.8237
2019-04-11T06:50:35.380Z,81.8237
2019-04-11T06:51:38.491Z,81.9275
2019-04-11T06:52:41.284Z,81.9275
2019-04-11T06:53:44.211Z,81.8237
2019-04-11T06:54:47.518Z,81.7200
2019-04-11T06:55:50.954Z,81.5125
2019-04-11T06:56:54.181Z,81.6162
2019-04-11T06:57:58.414Z,81.5125
2019-04-11T06:59:01.728Z,81.5125
2019-04-11T07:00:05.201Z,81.5125
2019-04-11T07:01:08.269Z,81.5125
2019-04-11T07:02:16.522Z,81.4148
2019-04-11T07:03:23.141Z,81.2683
2019-04-11T07:04:27.385Z,81.0669
2019-04-11T07:05:30.903Z,80.8594
2019-04-11T07:06:34.262Z,80.7556
2019-04-11T07:07:37.749Z,80.7556
2019-04-11T07:08:40.613Z,80.6152
2019-04-11T07:09:43.209Z,80.4077
2019-04-11T07:10:46.726Z,80.5481
2019-04-11T07:11:49.198Z,80.5481
2019-04-11T07:12:54.230Z,80.6152
2019-04-11T07:13:59.182Z,80.5115
2019-04-11T07:15:02.572Z,80.4077
2019-04-11T07:16:05.962Z,80.4077
2019-04-11T07:17:10.395Z,80.2002
2019-04-11T07:18:14.202Z,80.2002
2019-04-11T07:19:17.689Z,80.4443
2019-04-11T07:20:20.756Z,80.4077
2019-04-11T07:21:23.328Z,80.4077
2019-04-11T07:22:26.242Z,80.3040
2019-04-11T07:23:29.198Z,80.2002
2019-04-11T07:24:32.357Z,80.1025
2019-04-11T07:25:35.294Z,79.7913
2019-04-11T07:26:38.234Z,79.6509
2019-04-11T07:27:41.181Z,79.4434
2019-04-11T07:28:44.182Z,79.3396
2019-04-11T07:29:47.204Z,78.9307
2019-04-11T07:30:50.285Z,78.8269
2019-04-11T07:31:53.206Z,78.9307
2019-04-11T07:32:56.251Z,78.9307
2019-04-11T07:34:00.528Z,79.0344
2019-04-11T07:35:04.651Z,79.0344
2019-04-11T07:36:08.354Z,79.0344
2019-04-11T07:37:12.588Z,79.1382
2019-04-11T07:38:16.290Z,79.2358
2019-04-11T07:39:18.183Z,79.2358
2019-04-11T07:40:20.241Z,79.1382
2019-04-11T07:41:23.948Z,78.9307
2019-04-11T07:42:27.285Z,78.8269
2019-04-11T07:43:31.292Z,78.8269
2019-04-11T07:44:34.204Z,78.9307
2019-04-11T07:45:38.519Z,79.0344
2019-04-11T07:46:43.227Z,79.1382
2019-04-11T07:47:46.194Z,79.2358
2019-04-11T07:48:50.210Z,79.2358
2019-04-11T07:49:55.170Z,79.2358
2019-04-11T07:50:59.743Z,79.3396
2019-04-11T07:52:02.530Z,79.4434
2019-04-11T07:53:05.189Z,79.4434
2019-04-11T07:54:09.269Z,79.5471
2019-04-11T07:55:13.138Z,79.5471
2019-04-11T07:56:16.483Z,79.4434
2019-04-11T07:57:19.387Z,79.4434
2019-04-11T07:58:22.183Z,79.4434
2019-04-11T07:59:25.229Z,79.3396
2019-04-11T08:00:38.600Z,79.3396
2019-04-11T08:01:36.297Z,79.3396
2019-04-11T08:02:39.881Z,79.3396
2019-04-11T08:03:43.191Z,79.2358
2019-04-11T08:04:47.300Z,79.2358
2019-04-11T08:05:50.285Z,79.2358
2019-04-11T08:06:53.999Z,79.1382
2019-04-11T08:07:57.410Z,78.9307
2019-04-11T08:09:01.303Z,78.8269
2019-04-11T08:10:04.195Z,78.8269
2019-04-11T08:11:07.197Z,79.0344
2019-04-11T08:12:10.176Z,78.9307
2019-04-11T08:13:14.122Z,78.8269
2019-04-11T08:14:18.325Z,78.9307
2019-04-11T08:15:21.668Z,79.0344
2019-04-11T08:16:24.180Z,78.9307
2019-04-11T08:17:35.524Z,78.8269
2019-04-11T08:18:35.189Z,78.6865
2019-04-11T08:19:38.630Z,78.5828
2019-04-11T08:20:41.563Z,78.4790
2019-04-11T08:21:44.425Z,78.2776
2019-04-11T08:22:47.561Z,78.1738
2019-04-11T08:23:50.179Z,77.9297
2019-04-11T08:24:53.254Z,77.7222
2019-04-11T08:25:56.180Z,77.5146
2019-04-11T08:26:59.186Z,77.4170
2019-04-11T08:28:04.362Z,77.3132
2019-04-11T08:29:12.312Z,77.1729
2019-04-11T08:30:17.243Z,76.8616
2019-04-11T08:31:21.551Z,76.5564
2019-04-11T08:32:25.446Z,76.6602
2019-04-11T08:33:28.796Z,76.7639
2019-04-11T08:34:31.463Z,76.3489
2019-04-11T08:35:34.586Z,76.4160
2019-04-11T08:36:37.993Z,76.4160
2019-04-11T08:37:41.179Z,76.2146
2019-04-11T08:38:44.696Z,76.0742
2019-04-11T08:39:49.078Z,75.6653
2019-04-11T08:40:53.262Z,75.2502
2019-04-11T08:41:56.926Z,75.2136
2019-04-11T08:43:00.191Z,75.0122
2019-04-11T08:44:03.652Z,74.8718
2019-04-11T08:45:06.197Z,74.6704
2019-04-11T08:46:09.197Z,74.5300
2019-04-11T08:47:12.190Z,74.1211
2019-04-11T08:48:15.023Z,73.7061
2019-04-11T08:49:18.427Z,73.8098
2019-04-11T08:50:20.671Z,73.9136
2019-04-11T08:51:23.316Z,73.9807
2019-04-11T08:52:26.215Z,73.9807
2019-04-11T08:53:29.201Z,73.7793
2019-04-11T08:54:33.291Z,73.2666
2019-04-11T08:55:45.561Z,73.3643
2019-04-11T08:56:45.379Z,73.2666
2019-04-11T08:57:48.206Z,73.0225
2019-04-11T08:58:51.202Z,72.8210
2019-04-11T08:59:54.166Z,72.9248
2019-04-11T09:01:00.151Z,71.9971
2019-04-11T09:02:04.523Z,71.2830
2019-04-11T09:03:07.288Z,71.4844
2019-04-11T09:04:11.911Z,71.6919
2019-04-11T09:05:18.771Z,71.6919
2019-04-11T09:06:23.211Z,71.4844
2019-04-11T09:07:27.506Z,70.7703
2019-04-11T09:08:32.253Z,70.7703
2019-04-11T09:09:36.277Z,71.2830
2019-04-11T09:10:40.058Z,71.1121
2019-04-11T09:11:43.243Z,70.9045
2019-04-11T09:12:46.820Z,71.3135
2019-04-11T09:13:49.465Z,71.5210
2019-04-11T09:14:52.666Z,71.6248
2019-04-11T09:15:55.201Z,71.6248
2019-04-11T09:16:58.357Z,71.6248
2019-04-11T09:18:04.707Z,71.0754
2019-04-11T09:19:10.403Z,71.0083
2019-04-11T09:20:13.597Z,71.1792
2019-04-11T09:21:16.210Z,71.2830
2019-04-11T09:22:19.220Z,71.2830
2019-04-11T09:23:22.173Z,70.9717
2019-04-11T09:24:26.265Z,70.6360
2019-04-11T09:25:30.478Z,70.1904
2019-04-11T09:26:34.205Z,69.8486
2019-04-11T09:27:38.408Z,69.3359
2019-04-11T09:28:41.842Z,68.2800
2019-04-11T09:29:46.231Z,68.5913
2019-04-11T09:30:49.462Z,68.6584
2019-04-11T09:31:52.202Z,68.2495
2019-04-11T09:32:56.208Z,68.0115
2019-04-11T09:33:59.543Z,67.9138
2019-04-11T09:35:02.253Z,67.8833
2019-04-11T09:36:05.895Z,66.9312
2019-04-11T09:37:09.433Z,66.9006
2019-04-11T09:38:13.928Z,65.9790
2019-04-11T09:39:17.180Z,65.0574
2019-04-11T09:40:20.416Z,65.4663
2019-04-11T09:41:24.797Z,65.3687
2019-04-11T09:42:28.295Z,66.0095
2019-04-11T09:43:31.780Z,66.5222
2019-04-11T09:44:34.982Z,66.6199
2019-04-11T09:45:38.203Z,64.3738
2019-04-11T09:46:41.192Z,65.1184
2019-04-11T09:47:45.616Z,65.6311
2019-04-11T09:48:48.417Z,66.0400
2019-04-11T09:49:51.586Z,66.2781
2019-04-11T09:50:54.274Z,66.0706
2019-04-11T09:51:58.225Z,66.3757
2019-04-11T09:53:01.566Z,66.8884
2019-04-11T09:54:04.239Z,66.6870
2019-04-11T09:55:08.564Z,66.7847
2019-04-11T09:56:11.296Z,66.9922
2019-04-11T09:57:14.278Z,67.1936
2019-04-11T09:58:17.481Z,67.4011
2019-04-11T09:59:20.965Z,67.5049
2019-04-11T10:00:24.269Z,67.4744
2019-04-11T10:01:27.278Z,67.3706
2019-04-11T10:02:31.079Z,67.4744
2019-04-11T10:03:34.593Z,66.9617
2019-04-11T10:04:37.232Z,66.8579
2019-04-11T10:05:57.218Z,66.9312
2019-04-11T10:07:01.275Z,66.2109
2019-04-11T10:08:08.655Z,66.2109
2019-04-11T10:09:13.523Z,66.1133
2019-04-11T10:10:16.910Z,66.4185
2019-04-11T10:11:20.258Z,66.5222
2019-04-11T10:12:24.205Z,66.4185
2019-04-11T10:13:27.334Z,65.9790
2019-04-11T10:14:31.504Z,66.0828
2019-04-11T10:15:35.519Z,66.3879
2019-04-11T10:16:42.281Z,65.8752
2019-04-11T10:17:46.384Z,66.0828
2019-04-11T10:18:56.299Z,66.0828
2019-04-11T10:20:00.251Z,65.9485
2019-04-11T10:21:05.238Z,65.8142
2019-04-11T10:22:08.931Z,64.6912
2019-04-11T10:23:13.777Z,64.5874
2019-04-11T10:24:20.551Z,63.9771
2019-04-11T10:25:23.394Z,64.2822
2019-04-11T10:26:29.727Z,64.5874
2019-04-11T10:27:32.984Z,64.7949
2019-04-11T10:28:37.504Z,64.7644
2019-04-11T10:29:40.364Z,64.7644
2019-04-11T10:30:44.113Z,64.3555
2019-04-11T10:31:48.521Z,64.6606
2019-04-11T10:32:53.548Z,64.5630
2019-04-11T10:34:03.279Z,64.6912
2019-04-11T10:35:08.203Z,64.5874
2019-04-11T10:36:13.273Z,64.6606
2019-04-11T10:37:17.887Z,64.0503
2019-04-11T10:38:22.439Z,63.5376
2019-04-11T10:39:25.346Z,62.6221
2019-04-11T10:40:28.211Z,63.0310
2019-04-11T10:41:32.641Z,63.6414
2019-04-11T10:42:35.273Z,64.0503
2019-04-11T10:43:57.167Z,64.0503
2019-04-11T10:45:00.367Z,63.9465
2019-04-11T10:46:03.239Z,63.3667
2019-04-11T10:47:08.342Z,63.4705
2019-04-11T10:48:12.247Z,63.9038
2019-04-11T10:49:15.196Z,64.6484
2019-04-11T10:50:21.744Z,65.0574
2019-04-11T10:51:26.948Z,65.2649
2019-04-11T10:52:30.827Z,65.5701
2019-04-11T10:53:35.406Z,65.6738
2019-04-11T10:54:42.936Z,65.8752
2019-04-11T10:55:47.676Z,65.5396
2019-04-11T10:56:50.186Z,65.6433
2019-04-11T10:57:54.087Z,65.4358
2019-04-11T10:58:57.431Z,65.4663
2019-04-11T11:00:00.242Z,65.5701
2019-04-11T11:01:03.968Z,65.7715
2019-04-11T11:02:07.172Z,65.9790
2019-04-11T11:03:11.615Z,66.0828
2019-04-11T11:04:18.033Z,64.6484
2019-04-11T11:05:22.160Z,64.9902
2019-04-11T11:06:27.473Z,65.2954
2019-04-11T11:07:30.790Z,65.6311
2019-04-11T11:08:37.591Z,65.9363
2019-04-11T11:09:40.303Z,66.0095
2019-04-11T11:10:45.884Z,66.1133
2019-04-11T11:11:50.547Z,66.0095
2019-04-11T11:14:05.211Z,65.3687
2019-04-11T11:15:09.292Z,65.2649
2019-04-11T11:16:12.305Z,65.2649
2019-04-11T11:17:28.878Z,65.2344
2019-04-11T11:18:42.643Z,65.2344
2019-04-11T11:19:49.784Z,65.2344
2019-04-11T11:20:50.150Z,65.1306
2019-04-11T11:21:51.262Z,65.1306
2019-04-11T11:22:55.957Z,64.5203
2019-04-11T11:23:59.219Z,64.7217
2019-04-11T11:25:02.403Z,64.8254
2019-04-11T11:26:05.211Z,64.5203
2019-04-11T11:27:09.630Z,64.0808
2019-04-11T11:28:16.423Z,63.3972
2019-04-11T11:29:20.470Z,64.0076
2019-04-11T11:30:27.270Z,64.0808
2019-04-11T11:31:30.298Z,62.9578
2019-04-11T11:32:34.199Z,62.3474
2019-04-11T11:33:38.638Z,62.5793
2019-04-11T11:34:41.232Z,63.3240
2019-04-11T11:35:44.322Z,63.4277
2019-04-11T11:36:48.431Z,63.9343
2019-04-11T11:37:53.412Z,64.2395
2019-04-11T11:38:55.189Z,64.4470
2019-04-11T11:40:02.614Z,64.6484
2019-04-11T11:41:08.540Z,64.5813
2019-04-11T11:42:12.290Z,64.8865
2019-04-11T11:43:15.243Z,65.1917
2019-04-11T11:44:19.480Z,65.2954
2019-04-11T11:45:23.587Z,64.9170
2019-04-11T11:46:26.786Z,65.3259
2019-04-11T11:47:35.674Z,65.5273
2019-04-11T11:48:40.193Z,65.6006
2019-04-11T11:49:51.938Z,65.6006
2019-04-11T11:50:51.494Z,65.4968
2019-04-11T11:51:58.059Z,65.2954
2019-04-11T11:53:08.229Z,65.2954
2019-04-11T11:54:11.489Z,65.2649
2019-04-11T11:55:14.187Z,64.8560
2019-04-11T11:56:17.873Z,64.5203
2019-04-11T11:57:20.454Z,64.4165
2019-04-11T11:58:23.677Z,64.2822
2019-04-11T11:59:27.381Z,63.3667
2019-04-11T12:00:31.752Z,63.5681
2019-04-11T12:01:34.220Z,63.7756
2019-04-11T12:02:37.350Z,63.0615
2019-04-11T12:03:42.339Z,63.1348
2019-04-11T12:04:46.661Z,63.1348
2019-04-11T12:05:52.161Z,63.0310
2019-04-11T12:07:03.615Z,62.9272
2019-04-11T12:08:09.619Z,62.7991
2019-04-11T12:09:14.206Z,62.5916
2019-04-11T12:10:17.446Z,62.5916
2019-04-11T12:11:20.174Z,62.5610
2019-04-11T12:12:23.941Z,62.4634
2019-04-11T12:13:28.311Z,62.0239
2019-04-11T12:14:31.211Z,62.0239
2019-04-11T12:15:35.072Z,61.6150
2019-04-11T12:16:39.703Z,61.5173
2019-04-11T12:17:42.802Z,60.4980
2019-04-11T12:18:49.817Z,60.4980
2019-04-11T12:19:57.442Z,60.8032
2019-04-11T12:21:01.205Z,61.0046
2019-04-11T12:22:04.397Z,61.0046
2019-04-11T12:23:07.210Z,60.9802
2019-04-11T12:24:11.325Z,60.8032
2019-04-11T12:25:14.589Z,60.4980
2019-04-11T12:26:18.299Z,60.9070
2019-04-11T12:27:21.292Z,61.0046
2019-04-11T12:28:25.553Z,61.2122
2019-04-11T12:29:30.210Z,61.4441
2019-04-11T12:30:35.360Z,61.3403
2019-04-11T12:31:38.367Z,61.3403
2019-04-11T12:32:41.225Z,61.7798
2019-04-11T12:33:44.189Z,62.1826
2019-04-11T12:34:47.234Z,61.9812
2019-04-11T12:35:50.777Z,62.1094
2019-04-11T12:36:54.823Z,62.4207
2019-04-11T12:37:59.959Z,61.6333
2019-04-11T12:39:03.244Z,62.4451
2019-04-11T12:40:09.650Z,62.8845
2019-04-11T12:41:21.215Z,63.2935
2019-04-11T12:42:24.185Z,63.4949
2019-04-11T12:43:27.186Z,63.6292
2019-04-11T12:44:30.434Z,63.7024
2019-04-11T12:45:32.200Z,63.5986
2019-04-11T12:46:35.206Z,62.9578
2019-04-11T12:47:39.181Z,62.7563
2019-04-11T12:48:42.184Z,63.0920
2019-04-11T12:49:52.744Z,63.0920
2019-04-11T12:50:53.238Z,62.6831
2019-04-11T12:51:55.497Z,62.9883
2019-04-11T12:52:58.196Z,62.9883
2019-04-11T12:54:01.925Z,62.9883
2019-04-11T12:55:05.225Z,62.3718
2019-04-11T12:56:08.224Z,62.5793
2019-04-11T12:57:12.162Z,62.0667
2019-04-11T12:58:15.201Z,62.6099
2019-04-11T12:59:18.240Z,62.7808
2019-04-11T13:00:22.087Z,62.8845
2019-04-11T13:01:25.212Z,62.9883
2019-04-11T13:02:28.208Z,62.4756
2019-04-11T13:03:32.266Z,62.6831
2019-04-11T13:04:36.282Z,62.9883